createdAt,value
2018-06-05T00:01:59.867Z,94075.89
2018-06-05T00:04:28.581Z,94081.57
2018-06-05T00:06:57.204Z,94080.09
2018-06-05T00:09:25.875Z,94080.55
2018-06-05T00:11:54.554Z,94070.98
2018-06-05T00:14:23.182Z,94067.36
2018-06-05T00:16:51.877Z,94063.20
2018-06-05T00:19:20.515Z,94066.64
2018-06-05T00:21:49.177Z,94063.66
2018-06-05T00:24:17.838Z,94060.34
2018-06-05T00:26:46.459Z,94064.08
2018-06-05T00:29:15.082Z,94063.43
2018-06-05T00:31:43.776Z,94064.02
2018-06-05T00:34:12.519Z,94066.55
2018-06-05T00:36:41.217Z,94073.28
2018-06-05T00:39:09.838Z,94075.34
2018-06-05T00:41:38.476Z,94074.30
2018-06-05T00:44:07.146Z,94068.12
2018-06-05T00:46:35.791Z,94066.88
2018-06-05T00:49:04.438Z,94067.28
2018-06-05T00:51:44.184Z,94064.59
2018-06-05T00:54:12.956Z,94066.48
2018-06-05T00:56:41.635Z,94070.59
2018-06-05T00:59:10.242Z,94079.11
2018-06-05T01:01:38.895Z,94081.08
2018-06-05T01:04:07.621Z,94077.58
2018-06-05T01:06:36.236Z,94082.98
2018-06-05T01:09:07.324Z,94072.78
2018-06-05T01:11:36.080Z,94075.47
2018-06-05T01:14:04.864Z,94078.39
2018-06-05T01:16:33.474Z,94076.72
2018-06-05T01:19:02.129Z,94070.48
2018-06-05T01:21:30.737Z,94069.03
2018-06-05T01:23:59.402Z,94072.89
2018-06-05T01:26:28.078Z,94067.58
2018-06-05T01:28:56.766Z,94068.30
2018-06-05T01:31:25.469Z,94076.59
2018-06-05T01:33:54.217Z,94070.83
2018-06-05T01:36:22.884Z,94075.73
2018-06-05T01:38:51.546Z,94075.45
2018-06-05T01:41:20.166Z,94074.36
2018-06-05T01:43:48.862Z,94080.98
2018-06-05T01:46:17.540Z,94077.11
2018-06-05T01:48:46.204Z,94069.98
2018-06-05T01:51:14.854Z,94067.35
2018-06-05T01:53:43.534Z,94064.61
2018-06-05T01:56:13.303Z,94062.41
2018-06-05T01:58:41.924Z,94076.75
2018-06-05T02:01:10.581Z,94072.33
2018-06-05T02:03:39.237Z,94074.87
2018-06-05T02:06:07.992Z,94072.61
2018-06-05T02:08:36.703Z,94073.33
2018-06-05T02:11:05.358Z,94074.06
2018-06-05T02:16:07.967Z,94070.23
2018-06-05T02:18:36.608Z,94067.16
2018-06-05T02:21:05.252Z,94065.29
2018-06-05T02:23:33.895Z,94070.72
2018-06-05T02:26:02.522Z,94069.86
2018-06-05T02:28:31.151Z,94070.41
2018-06-05T02:30:59.804Z,94075.73
2018-06-05T02:33:28.423Z,94078.73
2018-06-05T02:35:57.064Z,94081.16
2018-06-05T02:38:25.696Z,94078.91
2018-06-05T02:40:54.442Z,94080.78
2018-06-05T02:43:23.152Z,94085.19
2018-06-05T02:45:51.864Z,94083.77
2018-06-05T02:48:20.467Z,94078.37
2018-06-05T02:50:49.143Z,94076.23
2018-06-05T02:53:17.791Z,94081.43
2018-06-05T02:55:46.427Z,94085.42
2018-06-05T02:58:15.068Z,94084.03
2018-06-05T03:00:43.700Z,94080.83
2018-06-05T03:03:12.425Z,94086.56
2018-06-05T03:05:41.156Z,94083.66
2018-06-05T03:08:09.846Z,94084.45
2018-06-05T03:10:38.495Z,94090.42
2018-06-05T03:13:07.199Z,94087.08
2018-06-05T03:15:35.837Z,94087.64
2018-06-05T03:18:04.563Z,94097.48
2018-06-05T03:20:33.256Z,94099.06
2018-06-05T03:23:01.949Z,94101.03
2018-06-05T03:25:30.592Z,94101.16
2018-06-05T03:27:59.259Z,94104.21
2018-06-05T03:30:27.893Z,94102.37
2018-06-05T03:32:56.583Z,94099.91
2018-06-05T03:35:25.270Z,94097.98
2018-06-05T03:37:53.951Z,94094.33
2018-06-05T03:40:22.586Z,94103.45
2018-06-05T03:42:51.298Z,94102.14
2018-06-05T03:45:19.950Z,94110.86
2018-06-05T03:47:48.607Z,94107.93
2018-06-05T03:50:17.257Z,94106.16
2018-06-05T03:52:45.924Z,94106.84
2018-06-05T03:55:14.547Z,94101.11
2018-06-05T03:57:43.213Z,94099.80
2018-06-05T04:00:11.927Z,94103.11
2018-06-05T04:02:40.553Z,94103.09
2018-06-05T04:05:09.219Z,94104.53
2018-06-05T04:07:37.848Z,94107.42
2018-06-05T04:10:06.635Z,94106.27
2018-06-05T04:12:35.321Z,94102.22
2018-06-05T04:15:04.078Z,94106.09
2018-06-05T04:17:33.090Z,94109.55
2018-06-05T04:20:01.816Z,94112.86
2018-06-05T04:22:30.462Z,94114.73
2018-06-05T04:24:59.137Z,94112.77
2018-06-05T04:27:27.855Z,94117.95
2018-06-05T04:29:56.486Z,94114.51
2018-06-05T04:32:25.162Z,94117.43
2018-06-05T04:34:53.825Z,94119.03
2018-06-05T04:37:22.457Z,94125.70
2018-06-05T04:39:51.146Z,94122.84
2018-06-05T04:42:19.846Z,94122.39
2018-06-05T04:44:48.510Z,94122.55
2018-06-05T04:47:17.803Z,94124.11
2018-06-05T04:49:46.578Z,94123.52
2018-06-05T04:52:15.197Z,94119.03
2018-06-05T04:54:43.840Z,94121.09
2018-06-05T04:57:12.571Z,94128.11
2018-06-05T04:59:41.181Z,94134.68
2018-06-05T05:02:09.850Z,94142.85
2018-06-05T05:04:38.513Z,94150.97
2018-06-05T05:07:07.178Z,94141.59
2018-06-05T05:09:35.834Z,94137.88
2018-06-05T05:12:04.491Z,94135.80
2018-06-05T05:14:33.158Z,94138.34
2018-06-05T05:17:01.882Z,94135.56
2018-06-05T05:19:30.551Z,94136.88
2018-06-05T05:21:59.193Z,94137.61
2018-06-05T05:24:27.815Z,94139.37
2018-06-05T05:26:56.473Z,94141.09
2018-06-05T05:29:25.098Z,94143.53
2018-06-05T05:31:53.828Z,94148.37
2018-06-05T05:34:22.496Z,94145.98
2018-06-05T05:36:51.101Z,94150.55
2018-06-05T05:39:19.747Z,94150.03
2018-06-05T05:41:48.406Z,94155.82
2018-06-05T05:44:17.067Z,94157.14
2018-06-05T05:46:45.742Z,94151.05
2018-06-05T05:49:14.397Z,94148.97
2018-06-05T05:51:43.055Z,94153.78
2018-06-05T05:54:11.686Z,94154.17
2018-06-05T05:56:40.345Z,94151.02
2018-06-05T05:59:09.016Z,94156.70
2018-06-05T06:01:37.712Z,94156.38
2018-06-05T06:04:06.383Z,94156.47
2018-06-05T06:06:35.082Z,94153.89
2018-06-05T06:09:04.057Z,94154.11
2018-06-05T06:11:32.693Z,94161.73
2018-06-05T06:14:01.414Z,94154.81
2018-06-05T06:16:30.125Z,94157.03
2018-06-05T06:18:58.867Z,94155.06
2018-06-05T06:21:27.542Z,94167.43
2018-06-05T06:23:56.210Z,94158.58
2018-06-05T06:26:24.895Z,94162.31
2018-06-05T06:28:53.518Z,94145.02
2018-06-05T06:31:22.159Z,94152.67
2018-06-05T06:33:50.848Z,94149.57
2018-06-05T06:36:19.503Z,94145.13
2018-06-05T06:38:48.151Z,94148.47
2018-06-05T06:41:16.977Z,94146.86
2018-06-05T06:43:45.642Z,94145.80
2018-06-05T06:46:14.280Z,94145.25
2018-06-05T06:48:42.984Z,94143.94
2018-06-05T06:51:11.735Z,94143.36
2018-06-05T06:53:40.403Z,94136.38
2018-06-05T06:56:09.068Z,94142.30
2018-06-05T06:58:37.722Z,94134.68
2018-06-05T07:01:06.371Z,94136.13
2018-06-05T07:03:35.132Z,94132.50
2018-06-05T07:06:03.766Z,94127.23
2018-06-05T07:08:32.399Z,94127.84
2018-06-05T07:11:01.088Z,94129.81
2018-06-05T07:13:29.750Z,94129.14
2018-06-05T07:15:58.440Z,94123.67
2018-06-05T07:18:27.479Z,94121.14
2018-06-05T07:20:56.162Z,94121.52
2018-06-05T07:23:24.902Z,94112.84
2018-06-05T07:25:53.590Z,94113.47
2018-06-05T07:28:22.286Z,94110.16
2018-06-05T07:30:51.110Z,94118.66
2018-06-05T07:33:19.748Z,94111.34
2018-06-05T07:35:48.452Z,94107.16
2018-06-05T07:38:17.057Z,94117.52
2018-06-05T07:40:45.736Z,94111.73
2018-06-05T07:43:14.671Z,94108.58
2018-06-05T07:45:43.362Z,94104.67
2018-06-05T07:48:12.077Z,94107.60
2018-06-05T07:50:40.729Z,94105.19
2018-06-05T07:53:09.362Z,94101.48
2018-06-05T07:55:38.041Z,94104.95
2018-06-05T07:58:06.746Z,94097.27
2018-06-05T08:00:35.391Z,94101.73
2018-06-05T08:03:04.039Z,94109.17
2018-06-05T08:05:32.690Z,94108.37
2018-06-05T08:08:01.347Z,94108.92
2018-06-05T08:10:30.036Z,94103.34
2018-06-05T08:12:58.675Z,94117.13
2018-06-05T08:15:27.399Z,94116.34
2018-06-05T08:17:56.053Z,94099.63
2018-06-05T08:20:24.840Z,94110.77
2018-06-05T08:22:55.587Z,94104.66
2018-06-05T08:25:24.308Z,94111.80
2018-06-05T08:27:52.956Z,94112.28
2018-06-05T08:30:21.639Z,94109.63
2018-06-05T08:32:50.261Z,94104.52
2018-06-05T08:35:18.929Z,94106.09
2018-06-05T08:37:47.548Z,94103.49
2018-06-05T08:40:16.301Z,94105.49
2018-06-05T08:42:44.989Z,94124.20
2018-06-05T08:45:13.680Z,94100.86
2018-06-05T08:47:42.273Z,94099.20
2018-06-05T08:50:10.931Z,94100.47
2018-06-05T08:52:39.583Z,94109.81
2018-06-05T08:55:08.242Z,94097.91
2018-06-05T08:57:36.886Z,94091.95
2018-06-05T09:00:07.359Z,94095.88
2018-06-05T09:02:36.053Z,94086.48
2018-06-05T09:05:04.894Z,94104.59
2018-06-05T09:07:33.525Z,94090.18
2018-06-05T09:10:02.178Z,94093.52
2018-06-05T09:12:30.806Z,94085.95
2018-06-05T09:14:59.438Z,94083.35
2018-06-05T09:17:28.046Z,94072.91
2018-06-05T09:19:56.673Z,94079.99
2018-06-05T09:22:25.354Z,94073.23
2018-06-05T09:24:53.991Z,94086.77
2018-06-05T09:27:22.621Z,94082.02
2018-06-05T09:29:51.317Z,94070.92
2018-06-05T09:32:20.262Z,94079.12
2018-06-05T09:34:48.887Z,94080.77
2018-06-05T09:37:17.510Z,94072.84
2018-06-05T09:39:46.147Z,94061.15
2018-06-05T09:42:14.808Z,94066.52
2018-06-05T09:44:43.450Z,94061.91
2018-06-05T09:47:12.118Z,94058.94
2018-06-05T09:49:40.755Z,94056.73
2018-06-05T09:52:09.398Z,94061.01
2018-06-05T09:54:38.162Z,94055.50
2018-06-05T09:57:06.809Z,94043.35
2018-06-05T09:59:35.492Z,94050.60
2018-06-05T10:02:04.155Z,94042.20
2018-06-05T10:04:32.826Z,94050.16
2018-06-05T10:07:01.509Z,94038.00
2018-06-05T10:09:30.161Z,94062.47
2018-06-05T10:11:58.847Z,94050.97
2018-06-05T10:14:27.466Z,94047.38
2018-06-05T10:16:56.139Z,94027.48
2018-06-05T10:19:24.866Z,94032.40
2018-06-05T10:21:53.556Z,94016.43
2018-06-05T10:24:22.195Z,94011.04
2018-06-05T10:26:50.866Z,94021.89
2018-06-05T10:29:19.547Z,94017.95
2018-06-05T10:31:48.215Z,94027.50
2018-06-05T10:34:16.881Z,94026.36
2018-06-05T10:36:45.498Z,94035.88
2018-06-05T10:39:14.289Z,94026.30
2018-06-05T10:41:43.079Z,94024.16
2018-06-05T10:44:11.693Z,94015.97
2018-06-05T10:46:40.482Z,94014.71
2018-06-05T10:49:09.134Z,94022.16
2018-06-05T10:51:37.776Z,94028.45
2018-06-05T10:54:06.455Z,94026.26
2018-06-05T10:56:35.134Z,94024.56
2018-06-05T10:59:03.764Z,94015.45
2018-06-05T11:01:32.414Z,94017.09
2018-06-05T11:04:01.523Z,94006.53
2018-06-05T11:06:30.295Z,94004.89
2018-06-05T11:08:58.919Z,93992.08
2018-06-05T11:11:27.558Z,94014.53
2018-06-05T11:13:56.247Z,93996.48
2018-06-05T11:16:24.969Z,93997.77
2018-06-05T11:18:53.714Z,93996.21
2018-06-05T11:21:22.356Z,93984.36
2018-06-05T11:23:50.988Z,93999.02
2018-06-05T11:26:19.635Z,94002.49
2018-06-05T11:28:48.316Z,93996.92
2018-06-05T11:31:16.975Z,93988.16
2018-06-05T11:33:45.661Z,93983.07
2018-06-05T11:36:14.316Z,93983.59
2018-06-05T11:38:42.970Z,93988.52
2018-06-05T11:41:11.616Z,93963.92
2018-06-05T11:43:40.276Z,93956.20
2018-06-05T11:46:08.970Z,93962.43
2018-06-05T11:48:37.626Z,93974.29
2018-06-05T11:51:06.250Z,93974.20
2018-06-05T11:53:34.873Z,93961.80
2018-06-05T11:56:03.590Z,93963.73
2018-06-05T11:58:32.315Z,93958.02
2018-06-05T12:01:00.990Z,93951.30
2018-06-05T12:03:29.615Z,93951.30
2018-06-05T12:05:58.366Z,93942.16
2018-06-05T12:08:26.988Z,93957.92
2018-06-05T12:10:55.652Z,93955.71
2018-06-05T12:13:24.268Z,93949.13
2018-06-05T12:15:52.867Z,93950.16
2018-06-05T12:18:21.456Z,93946.63
2018-06-05T12:20:50.084Z,93944.33
2018-06-05T12:23:18.757Z,93942.34
2018-06-05T12:25:47.419Z,93943.13
2018-06-05T12:28:16.073Z,93934.34
2018-06-05T12:30:44.738Z,93941.57
2018-06-05T12:33:13.381Z,93943.58
2018-06-05T12:35:42.033Z,93946.97
2018-06-05T12:38:10.687Z,93941.28
2018-06-05T12:40:39.302Z,93947.17
2018-06-05T12:43:07.922Z,93947.52
2018-06-05T12:45:36.530Z,93948.43
2018-06-05T12:48:06.324Z,93943.09
2018-06-05T12:50:34.989Z,93950.80
2018-06-05T12:53:03.626Z,93951.47
2018-06-05T12:55:32.244Z,93942.23
2018-06-05T12:58:00.939Z,93939.51
2018-06-05T13:00:29.596Z,93930.86
2018-06-05T13:02:58.298Z,93935.98
2018-06-05T13:05:27.140Z,93935.00
2018-06-05T13:07:55.844Z,93937.41
2018-06-05T13:10:24.463Z,93930.93
2018-06-05T13:12:53.148Z,93929.96
2018-06-05T13:15:21.841Z,93925.27
2018-06-05T13:17:51.170Z,93917.36
2018-06-05T13:20:19.881Z,93924.17
2018-06-05T13:22:48.556Z,93919.28
2018-06-05T13:25:17.167Z,93917.42
2018-06-05T13:27:45.844Z,93913.51
2018-06-05T13:30:14.553Z,93913.41
2018-06-05T13:32:43.174Z,93927.91
2018-06-05T13:35:11.809Z,93931.09
2018-06-05T13:37:41.640Z,93933.86
2018-06-05T13:40:10.266Z,93935.03
2018-06-05T13:42:38.880Z,93934.34
2018-06-05T13:45:07.503Z,93929.05
2018-06-05T13:47:36.168Z,93924.23
2018-06-05T13:50:04.938Z,93927.40
2018-06-05T13:52:33.610Z,93929.55
2018-06-05T13:55:02.254Z,93928.08
2018-06-05T13:57:30.894Z,93930.17
2018-06-05T13:59:59.546Z,93934.73
2018-06-05T14:02:28.161Z,93929.16
2018-06-05T14:04:56.866Z,93932.41
2018-06-05T14:07:25.511Z,93930.92
2018-06-05T14:09:54.179Z,93925.91
2018-06-05T14:12:22.864Z,93924.44
2018-06-05T14:14:51.542Z,93914.28
2018-06-05T14:17:20.317Z,93920.09
2018-06-05T14:19:48.968Z,93926.98
2018-06-05T14:22:17.598Z,93931.43
2018-06-05T14:24:46.607Z,93927.34
2018-06-05T14:27:15.262Z,93926.63
2018-06-05T14:29:43.887Z,93925.16
2018-06-05T14:32:12.473Z,93925.45
2018-06-05T14:34:41.256Z,93928.94
2018-06-05T14:37:09.957Z,93918.61
2018-06-05T14:39:38.598Z,93925.91
2018-06-05T14:42:07.321Z,93933.23
2018-06-05T14:44:35.992Z,93930.20
2018-06-05T14:47:04.667Z,93929.19
2018-06-05T14:49:33.335Z,93935.03
2018-06-05T14:52:27.266Z,93933.94
2018-06-05T14:54:59.852Z,93933.86
2018-06-05T14:57:29.090Z,93939.11
2018-06-05T14:59:57.981Z,93941.27
2018-06-05T15:02:26.713Z,93944.16
2018-06-05T15:04:55.360Z,93948.55
2018-06-05T15:07:24.034Z,93943.39
2018-06-05T15:09:52.780Z,93946.31
2018-06-05T15:12:21.415Z,93948.13
2018-06-05T15:14:50.101Z,93946.58
2018-06-05T15:17:18.752Z,93941.84
2018-06-05T15:19:47.449Z,93944.25
2018-06-05T15:22:16.238Z,93948.16
2018-06-05T15:24:44.822Z,93946.87
2018-06-05T15:27:13.570Z,93952.88
2018-06-05T15:29:42.258Z,93958.17
2018-06-05T15:32:10.938Z,93961.95
2018-06-05T15:34:39.651Z,93964.94
2018-06-05T15:37:08.319Z,93963.62
2018-06-05T15:39:37.034Z,93961.88
2018-06-05T15:42:05.711Z,93959.02
2018-06-05T15:44:34.370Z,93962.12
2018-06-05T15:47:03.038Z,93959.02
2018-06-05T15:49:31.720Z,93957.13
2018-06-05T15:52:00.393Z,93953.53
2018-06-05T15:54:29.062Z,93959.78
2018-06-05T15:56:57.689Z,93958.84
2018-06-05T15:59:26.328Z,93961.15
2018-06-05T16:01:54.986Z,93964.73
2018-06-05T16:04:23.672Z,93957.27
2018-06-05T16:06:52.369Z,93959.83
2018-06-05T16:09:21.031Z,93958.26
2018-06-05T16:11:49.688Z,93955.55
2018-06-05T16:14:18.300Z,93951.23
2018-06-05T16:16:47.007Z,93958.77
2018-06-05T16:19:16.261Z,93954.22
2018-06-05T16:21:44.886Z,93963.55
2018-06-05T16:24:13.584Z,93966.84
2018-06-05T16:26:42.438Z,93968.00
2018-06-05T16:29:11.085Z,93970.22
2018-06-05T16:31:39.817Z,93970.08
2018-06-05T16:34:08.495Z,93973.44
2018-06-05T16:36:37.206Z,93969.42
2018-06-05T16:39:08.432Z,93970.81
2018-06-05T16:41:37.135Z,93975.31
2018-06-05T16:44:05.817Z,93976.58
2018-06-05T16:46:34.448Z,93983.17
2018-06-05T16:49:03.113Z,93976.35
2018-06-05T16:52:23.480Z,93987.20
2018-06-05T16:54:52.547Z,93986.16
2018-06-05T16:57:22.982Z,93981.21
2018-06-05T16:59:54.351Z,93989.22
2018-06-05T17:02:23.076Z,93988.87
2018-06-05T17:04:51.860Z,93997.50
2018-06-05T17:07:21.499Z,93993.23
2018-06-05T17:09:50.114Z,93994.81
2018-06-05T17:12:19.622Z,94002.02
2018-06-05T17:14:48.221Z,94004.50
2018-06-05T17:17:16.955Z,94004.27
2018-06-05T17:19:45.571Z,94013.62
2018-06-05T17:22:14.365Z,94019.44
2018-06-05T17:24:43.014Z,94017.17
2018-06-05T17:27:11.690Z,94018.28
2018-06-05T17:29:40.313Z,94016.16
2018-06-05T17:32:08.983Z,94016.48
2018-06-05T17:34:37.724Z,94020.84
2018-06-05T17:37:06.398Z,94025.41
2018-06-05T17:39:35.068Z,94027.23
2018-06-05T17:42:03.702Z,94028.61
2018-06-05T17:44:32.363Z,94027.84
2018-06-05T17:47:01.038Z,94034.57
2018-06-05T17:49:29.683Z,94039.20
2018-06-05T17:51:58.337Z,94042.94
2018-06-05T17:54:26.957Z,94048.86
2018-06-05T17:56:55.579Z,94048.37
2018-06-05T17:59:24.931Z,94052.53
2018-06-05T18:01:53.573Z,94051.13
2018-06-05T18:04:22.243Z,94053.86
2018-06-05T18:06:50.898Z,94059.03
2018-06-05T18:09:19.560Z,94063.97
2018-06-05T18:11:48.348Z,94060.88
2018-06-05T18:14:17.037Z,94072.70
2018-06-05T18:16:45.731Z,94076.20
2018-06-05T18:19:14.383Z,94086.75
2018-06-05T18:21:43.109Z,94090.07
2018-06-05T18:24:11.897Z,94088.03
2018-06-05T18:26:40.578Z,94096.39
2018-06-05T18:29:09.162Z,94099.95
2018-06-05T18:31:38.051Z,94102.90
2018-06-05T18:34:06.673Z,94107.45
2018-06-05T18:36:35.432Z,94106.42
2018-06-05T18:39:05.741Z,94111.50
2018-06-05T18:41:34.482Z,94121.69
2018-06-05T18:44:03.101Z,94130.80
2018-06-05T18:46:31.860Z,94129.75
2018-06-05T18:49:00.852Z,94137.83
2018-06-05T18:51:29.493Z,94136.27
2018-06-05T18:53:58.155Z,94136.58
2018-06-05T18:56:26.834Z,94136.06
2018-06-05T18:58:55.725Z,94134.47
2018-06-05T19:01:24.496Z,94132.06
2018-06-05T19:03:53.180Z,94135.53
2018-06-05T19:06:21.892Z,94140.05
2018-06-05T19:08:50.702Z,94141.70
2018-06-05T19:11:19.398Z,94140.44
2018-06-05T19:13:48.234Z,94138.33
2018-06-05T19:16:16.985Z,94138.08
2018-06-05T19:18:45.603Z,94138.63
2018-06-05T19:21:15.185Z,94139.13
2018-06-05T19:23:43.832Z,94142.86
2018-06-05T19:26:12.490Z,94143.94
2018-06-05T19:28:41.762Z,94146.33
2018-06-05T19:31:10.815Z,94146.84
2018-06-05T19:33:39.506Z,94146.06
2018-06-05T19:36:08.224Z,94144.19
2018-06-05T19:38:36.901Z,94152.93
2018-06-05T19:41:05.545Z,94143.13
2018-06-05T19:43:34.228Z,94148.16
2018-06-05T19:46:02.883Z,94147.89
2018-06-05T19:48:31.561Z,94150.27
2018-06-05T19:51:00.227Z,94151.30
2018-06-05T19:53:28.910Z,94146.50
2018-06-05T19:55:58.267Z,94148.34
2018-06-05T19:58:27.103Z,94148.08
2018-06-05T20:00:55.822Z,94145.42
2018-06-05T20:03:24.481Z,94151.20
2018-06-05T20:05:53.446Z,94159.91
2018-06-05T20:08:22.155Z,94159.61
2018-06-05T20:10:51.003Z,94163.31
2018-06-05T20:14:16.539Z,94167.48
2018-06-05T20:17:05.118Z,94171.88
2018-06-05T20:19:47.224Z,94153.24
2018-06-05T20:28:18.976Z,94159.73
2018-06-05T20:30:55.562Z,94181.55
2018-06-05T20:37:10.235Z,94185.14
2018-06-05T20:39:39.867Z,94185.83
2018-06-05T20:42:08.525Z,94189.76
2018-06-05T20:44:37.199Z,94198.97
2018-06-05T20:47:05.944Z,94201.89
2018-06-05T20:49:34.707Z,94203.44
2018-06-05T20:52:03.440Z,94201.07
2018-06-05T20:54:32.103Z,94209.95
2018-06-05T20:57:00.759Z,94213.28
2018-06-05T20:59:29.462Z,94222.22
2018-06-05T21:01:58.132Z,94219.27
2018-06-05T21:04:26.864Z,94220.39
2018-06-05T21:06:55.619Z,94223.65
2018-06-05T21:09:24.299Z,94223.65
2018-06-05T21:11:52.950Z,94225.22
2018-06-05T21:14:21.613Z,94223.55
2018-06-05T21:16:50.302Z,94232.88
2018-06-05T21:19:19.045Z,94231.86
2018-06-05T21:21:47.685Z,94231.55
2018-06-05T21:24:16.369Z,94229.64
2018-06-05T21:26:45.173Z,94232.98
2018-06-05T21:29:13.878Z,94227.70
2018-06-05T21:31:42.687Z,94226.92
2018-06-05T21:34:11.457Z,94228.30
2018-06-05T21:36:40.114Z,94229.53
2018-06-05T21:39:10.111Z,94233.13
2018-06-05T21:41:39.390Z,94231.33
2018-06-05T21:44:08.169Z,94233.72
2018-06-05T21:46:36.827Z,94228.49
2018-06-05T21:49:05.519Z,94220.31
2018-06-05T21:51:34.318Z,94225.77
2018-06-05T21:54:05.229Z,94226.75
2018-06-05T21:56:34.576Z,94229.55
2018-06-05T21:59:03.749Z,94232.13
2018-06-05T22:01:34.191Z,94226.73
2018-06-05T22:06:48.598Z,94237.13
2018-06-05T22:09:17.288Z,94236.59
2018-06-05T22:11:46.910Z,94241.88
2018-06-05T22:14:17.379Z,94239.67
2018-06-05T22:16:46.145Z,94231.72
2018-06-05T22:19:17.907Z,94234.08
2018-06-05T22:21:47.355Z,94240.14
2018-06-05T22:24:16.311Z,94241.28
2018-06-05T22:39:55.890Z,94234.01
2018-06-05T22:42:24.638Z,94232.48
2018-06-05T22:44:53.291Z,94231.22
2018-06-05T22:47:21.903Z,94231.83
2018-06-05T22:49:50.706Z,94232.73
2018-06-05T22:52:19.377Z,94229.31
2018-06-05T22:54:48.144Z,94227.30
2018-06-05T22:57:17.704Z,94229.95
2018-06-05T22:59:46.385Z,94232.83
2018-06-05T23:02:15.237Z,94237.98
2018-06-05T23:04:43.935Z,94235.43
2018-06-05T23:07:12.682Z,94224.93
2018-06-05T23:09:41.315Z,94235.30
2018-06-05T23:12:10.038Z,94245.95
2018-06-05T23:14:38.694Z,94244.64
2018-06-05T23:17:07.379Z,94249.52
2018-06-05T23:19:36.079Z,94246.02
2018-06-05T23:22:04.749Z,94244.95
2018-06-05T23:24:33.429Z,94244.32
2018-06-05T23:27:02.070Z,94242.12
2018-06-05T23:29:30.739Z,94233.05
2018-06-05T23:31:59.375Z,94228.97
2018-06-05T23:34:28.023Z,94229.19
2018-06-05T23:36:56.660Z,94235.48
2018-06-05T23:39:25.307Z,94239.39
2018-06-05T23:41:53.976Z,94243.74
2018-06-05T23:44:22.649Z,94243.16
2018-06-05T23:46:51.303Z,94242.36
2018-06-05T23:49:20.032Z,94243.51
2018-06-05T23:51:48.764Z,94238.59
2018-06-05T23:54:17.500Z,94236.86
2018-06-05T23:56:46.176Z,94241.08
2018-06-05T23:59:14.820Z,94240.34
